createdAt,value
2022-08-07T00:00:27.945Z,38.40
2022-08-07T00:02:41.084Z,38.50
2022-08-07T00:04:44.610Z,38.70
2022-08-07T00:06:51.658Z,39.00
2022-08-07T00:08:54.079Z,38.60
2022-08-07T00:10:58.174Z,38.60
2022-08-07T00:13:03.320Z,38.70
2022-08-07T00:15:19.210Z,38.70
2022-08-07T00:17:20.955Z,38.80
2022-08-07T00:19:26.038Z,38.80
2022-08-07T00:21:57.335Z,38.70
2022-08-07T00:23:57.725Z,38.70
2022-08-07T00:26:12.961Z,38.70
2022-08-07T00:28:22.111Z,38.90
2022-08-07T00:30:28.086Z,38.80
2022-08-07T00:32:30.704Z,38.70
2022-08-07T00:34:36.938Z,38.80
2022-08-07T00:36:43.217Z,38.90
2022-08-07T00:38:45.489Z,38.90
2022-08-07T00:40:47.229Z,39.30
2022-08-07T00:42:50.282Z,39.30
2022-08-07T00:44:54.364Z,39.30
2022-08-07T00:46:56.179Z,39.30
2022-08-07T00:49:01.929Z,39.10
2022-08-07T00:51:04.292Z,38.90
2022-08-07T00:53:05.993Z,39.00
2022-08-07T00:55:12.636Z,39.00
2022-08-07T00:57:19.666Z,39.10
2022-08-07T00:59:35.458Z,38.90
2022-08-07T01:01:44.100Z,39.10
2022-08-07T01:03:56.055Z,38.90
2022-08-07T01:06:03.065Z,39.00
2022-08-07T01:08:05.972Z,39.10
2022-08-07T01:10:11.408Z,39.00
2022-08-07T01:12:29.815Z,39.30
2022-08-07T01:14:36.957Z,39.60
2022-08-07T01:16:39.827Z,39.40
2022-08-07T01:18:45.124Z,39.20
2022-08-07T01:20:57.313Z,39.40
2022-08-07T01:23:12.745Z,39.20
2022-08-07T01:25:40.267Z,39.20
2022-08-07T01:27:38.066Z,38.90
2022-08-07T01:29:52.365Z,39.20
2022-08-07T01:31:55.686Z,39.50
2022-08-07T01:34:02.156Z,39.40
2022-08-07T01:36:09.959Z,39.30
2022-08-07T01:38:14.775Z,39.30
2022-08-07T01:40:28.376Z,39.30
2022-08-07T01:42:39.565Z,39.30
2022-08-07T01:44:57.153Z,39.40
2022-08-07T01:47:01.215Z,39.80
2022-08-07T01:49:17.873Z,39.70
2022-08-07T01:52:03.970Z,39.60
2022-08-07T01:54:09.114Z,39.80
2022-08-07T01:56:32.778Z,39.70
2022-08-07T01:58:43.910Z,39.80
2022-08-07T02:00:50.060Z,39.80
2022-08-07T02:03:21.258Z,40.00
2022-08-07T02:05:47.645Z,40.00
2022-08-07T02:07:59.349Z,39.90
2022-08-07T02:10:08.279Z,39.70
2022-08-07T02:12:17.871Z,40.40
2022-08-07T02:14:35.839Z,39.70
2022-08-07T02:16:47.671Z,39.90
2022-08-07T02:18:51.189Z,39.90
2022-08-07T02:20:57.335Z,39.90
2022-08-07T02:23:05.716Z,39.90
2022-08-07T02:25:17.272Z,39.90
2022-08-07T02:27:34.193Z,40.10
2022-08-07T02:29:48.641Z,40.20
2022-08-07T02:31:59.881Z,40.10
2022-08-07T02:34:10.877Z,40.00
2022-08-07T02:36:29.970Z,40.00
2022-08-07T02:38:51.027Z,40.30
2022-08-07T02:41:00.784Z,40.30
2022-08-07T02:43:08.048Z,40.10
2022-08-07T02:45:58.028Z,40.30
2022-08-07T02:47:35.074Z,40.20
2022-08-07T02:49:58.113Z,40.30
2022-08-07T02:52:03.206Z,40.60
2022-08-07T02:54:07.249Z,40.50
2022-08-07T02:56:21.302Z,40.80
2022-08-07T02:58:27.106Z,40.50
2022-08-07T03:00:33.220Z,40.40
2022-08-07T03:02:35.521Z,40.60
2022-08-07T03:04:39.495Z,40.60
2022-08-07T03:06:44.825Z,40.70
2022-08-07T03:08:49.327Z,40.60
2022-08-07T03:10:54.658Z,40.70
2022-08-07T03:13:03.578Z,40.60
2022-08-07T03:15:07.822Z,41.00
2022-08-07T03:17:10.843Z,41.20
2022-08-07T03:19:13.775Z,41.30
2022-08-07T03:21:19.019Z,41.10
2022-08-07T03:23:21.853Z,41.20
2022-08-07T03:25:40.347Z,41.10
2022-08-07T03:28:09.092Z,41.40
2022-08-07T03:30:08.271Z,41.60
2022-08-07T03:32:14.315Z,41.70
2022-08-07T03:34:21.781Z,41.80
2022-08-07T03:36:26.891Z,41.70
2022-08-07T03:38:33.326Z,41.70
2022-08-07T03:40:37.007Z,42.00
2022-08-07T03:42:45.325Z,41.80
2022-08-07T03:44:53.441Z,42.00
2022-08-07T03:47:11.412Z,42.00
2022-08-07T03:49:17.208Z,42.00
2022-08-07T03:51:20.978Z,41.90
2022-08-07T03:54:00.805Z,42.00
2022-08-07T03:55:58.109Z,42.20
2022-08-07T03:58:32.941Z,42.30
2022-08-07T04:00:33.540Z,42.70
2022-08-07T04:02:36.053Z,42.40
2022-08-07T04:04:43.196Z,42.80
2022-08-07T04:06:50.652Z,42.70
2022-08-07T04:08:54.100Z,43.20
2022-08-07T04:12:15.610Z,42.90
2022-08-07T04:13:20.270Z,42.90
2022-08-07T04:15:26.771Z,42.70
2022-08-07T04:18:30.783Z,42.80
2022-08-07T04:19:54.167Z,43.00
2022-08-07T04:22:08.658Z,43.00
2022-08-07T04:24:30.784Z,42.90
2022-08-07T04:26:39.091Z,43.00
2022-08-07T04:28:45.668Z,43.00
2022-08-07T04:30:56.996Z,42.90
2022-08-07T04:33:10.168Z,43.20
2022-08-07T04:35:18.089Z,43.20
2022-08-07T04:37:24.283Z,43.30
2022-08-07T04:39:35.993Z,43.40
2022-08-07T04:41:39.254Z,43.50
2022-08-07T04:44:13.207Z,43.50
2022-08-07T04:46:29.405Z,43.60
2022-08-07T04:48:37.186Z,43.80
2022-08-07T04:50:41.982Z,43.60
2022-08-07T04:53:05.804Z,43.80
2022-08-07T04:58:14.586Z,43.80
2022-08-07T04:58:15.425Z,43.80
2022-08-07T05:00:40.701Z,43.80
2022-08-07T05:02:53.015Z,44.10
2022-08-07T05:05:01.610Z,44.00
2022-08-07T05:07:19.678Z,44.00
2022-08-07T05:09:46.063Z,44.00
2022-08-07T05:11:57.560Z,44.20
2022-08-07T05:14:55.793Z,44.30
2022-08-07T05:16:34.850Z,44.30
2022-08-07T05:18:52.381Z,44.40
2022-08-07T05:21:14.853Z,44.50
2022-08-07T05:23:30.235Z,44.60
2022-08-07T05:26:10.726Z,44.40
2022-08-07T05:28:03.358Z,44.70
2022-08-07T05:30:21.123Z,44.50
2022-08-07T05:32:37.457Z,44.40
2022-08-07T05:34:40.485Z,44.60
2022-08-07T05:36:49.090Z,44.60
2022-08-07T05:40:05.517Z,44.50
2022-08-07T05:42:01.551Z,44.80
2022-08-07T05:44:12.168Z,44.90
2022-08-07T05:46:20.674Z,44.90
2022-08-07T05:48:28.931Z,45.30
2022-08-07T05:50:33.837Z,45.10
2022-08-07T05:52:35.564Z,45.10
2022-08-07T05:54:53.298Z,45.20
2022-08-07T05:56:57.971Z,44.80
2022-08-07T05:59:02.431Z,45.20
2022-08-07T06:01:10.415Z,45.20
2022-08-07T06:03:14.269Z,45.20
2022-08-07T06:05:17.186Z,45.40
2022-08-07T06:08:29.424Z,45.50
2022-08-07T06:10:05.325Z,45.40
2022-08-07T06:12:08.184Z,45.50
2022-08-07T06:14:11.418Z,45.50
2022-08-07T06:16:18.043Z,45.40
2022-08-07T06:18:21.422Z,45.60
2022-08-07T06:20:31.848Z,45.60
2022-08-07T06:22:40.107Z,45.60
2022-08-07T06:25:01.130Z,45.70
2022-08-07T06:27:04.222Z,45.60
2022-08-07T06:29:08.613Z,45.80
2022-08-07T06:31:13.272Z,45.90
2022-08-07T06:33:16.832Z,45.70
2022-08-07T06:35:21.298Z,45.40
2022-08-07T06:37:24.677Z,45.50
2022-08-07T06:40:16.096Z,45.70
2022-08-07T06:42:15.442Z,45.50
2022-08-07T06:44:39.899Z,45.60
2022-08-07T06:46:42.183Z,45.80
2022-08-07T06:48:46.000Z,45.80
2022-08-07T06:50:52.749Z,45.90
2022-08-07T06:52:58.393Z,45.80
2022-08-07T06:55:33.048Z,45.60
2022-08-07T06:57:43.455Z,45.80
2022-08-07T07:00:14.048Z,46.10
2022-08-07T07:02:53.608Z,46.00
2022-08-07T07:04:43.427Z,45.90
2022-08-07T07:07:00.349Z,46.00
2022-08-07T07:09:31.999Z,45.90
2022-08-07T07:12:07.608Z,45.90
2022-08-07T07:14:02.496Z,46.60
2022-08-07T07:16:07.741Z,46.00
2022-08-07T07:18:15.477Z,46.10
2022-08-07T07:20:39.353Z,46.00
2022-08-07T07:24:06.250Z,46.10
2022-08-07T07:26:31.330Z,46.10
2022-08-07T07:27:35.326Z,46.00
2022-08-07T07:30:07.565Z,46.00
2022-08-07T07:32:03.051Z,46.20
2022-08-07T07:34:07.962Z,45.90
2022-08-07T07:36:13.183Z,46.00
2022-08-07T07:38:15.574Z,45.80
2022-08-07T07:40:18.323Z,45.90
2022-08-07T07:42:22.059Z,45.80
2022-08-07T07:44:34.872Z,46.10
2022-08-07T07:46:55.213Z,46.20
2022-08-07T07:50:31.345Z,46.20
2022-08-07T07:51:22.264Z,46.10
2022-08-07T07:53:25.757Z,46.20
2022-08-07T07:55:37.735Z,46.10
2022-08-07T07:57:53.767Z,46.00
2022-08-07T08:00:00.621Z,45.80
2022-08-07T08:02:33.626Z,45.90
2022-08-07T08:04:37.095Z,45.80
2022-08-07T08:06:51.934Z,45.60
2022-08-07T08:08:54.885Z,45.30
2022-08-07T08:11:02.919Z,45.30
2022-08-07T08:13:07.324Z,45.00
2022-08-07T08:15:12.503Z,45.00
2022-08-07T08:17:58.243Z,44.90
2022-08-07T08:20:17.277Z,44.90
2022-08-07T08:22:19.203Z,44.80
2022-08-07T08:24:45.004Z,44.70
2022-08-07T08:27:09.527Z,44.70
2022-08-07T08:29:12.587Z,44.40
2022-08-07T08:31:22.764Z,44.40
2022-08-07T08:33:42.462Z,44.40
2022-08-07T08:35:52.444Z,44.50
2022-08-07T08:38:01.388Z,44.50
2022-08-07T08:40:11.521Z,44.50
2022-08-07T08:42:25.833Z,45.00
2022-08-07T08:44:31.334Z,44.30
2022-08-07T08:46:39.407Z,44.20
2022-08-07T08:48:51.480Z,44.20
2022-08-07T08:51:14.210Z,44.10
2022-08-07T08:53:19.684Z,44.10
2022-08-07T08:55:54.934Z,44.00
2022-08-07T08:57:47.618Z,44.00
2022-08-07T09:00:09.408Z,43.90
2022-08-07T09:02:36.617Z,43.80
2022-08-07T09:04:39.558Z,43.80
2022-08-07T09:06:48.345Z,43.70
2022-08-07T09:09:01.528Z,43.60
2022-08-07T09:11:13.988Z,44.30
2022-08-07T09:13:38.156Z,43.60
2022-08-07T09:16:20.535Z,43.40
2022-08-07T09:18:39.389Z,43.40
2022-08-07T09:21:00.996Z,43.20
2022-08-07T09:24:30.793Z,43.20
2022-08-07T09:25:37.742Z,43.20
2022-08-07T09:27:59.753Z,43.10
2022-08-07T09:30:08.257Z,43.10
2022-08-07T09:32:21.657Z,42.90
2022-08-07T09:34:26.341Z,42.70
2022-08-07T09:36:37.315Z,42.60
2022-08-07T09:38:49.886Z,42.50
2022-08-07T09:41:10.510Z,42.30
2022-08-07T09:43:40.270Z,42.50
2022-08-07T09:47:24.046Z,42.40
2022-08-07T09:48:55.976Z,42.30
2022-08-07T09:52:09.410Z,42.20
2022-08-07T09:53:40.832Z,42.10
2022-08-07T09:56:03.842Z,41.50
2022-08-07T09:58:18.712Z,41.90
2022-08-07T10:00:21.582Z,41.80
2022-08-07T10:03:08.554Z,41.70
2022-08-07T10:05:59.901Z,41.70
2022-08-07T10:08:14.440Z,41.60
2022-08-07T10:11:00.135Z,41.60
2022-08-07T10:13:29.683Z,41.80
2022-08-07T10:15:37.819Z,41.40
2022-08-07T10:18:06.328Z,41.20
2022-08-07T10:20:13.036Z,41.00
2022-08-07T10:22:36.735Z,41.40
2022-08-07T10:25:03.048Z,41.50
2022-08-07T10:27:11.200Z,41.00
2022-08-07T10:29:15.980Z,40.80
2022-08-07T10:31:23.823Z,40.30
2022-08-07T10:34:06.351Z,40.70
2022-08-07T10:36:11.087Z,40.90
2022-08-07T10:38:42.106Z,40.80
2022-08-07T10:40:53.886Z,40.70
2022-08-07T10:43:03.092Z,40.90
2022-08-07T10:45:44.541Z,40.70
2022-08-07T10:47:53.735Z,40.50
2022-08-07T10:50:03.887Z,40.00
2022-08-07T10:52:33.553Z,40.10
2022-08-07T10:54:41.463Z,40.10
2022-08-07T10:57:01.254Z,39.80
2022-08-07T10:59:22.022Z,40.40
2022-08-07T11:01:51.535Z,40.20
2022-08-07T11:04:16.771Z,39.80
2022-08-07T11:06:24.141Z,40.10
2022-08-07T11:08:48.675Z,39.90
2022-08-07T11:11:10.731Z,39.80
2022-08-07T11:14:41.966Z,39.70
2022-08-07T11:15:40.780Z,39.80
2022-08-07T11:17:50.189Z,39.70
2022-08-07T11:20:04.515Z,39.50
2022-08-07T11:22:18.800Z,39.70
2022-08-07T11:24:33.728Z,39.50
2022-08-07T11:26:43.410Z,40.00
2022-08-07T11:28:56.517Z,39.80
2022-08-07T11:31:11.450Z,40.10
2022-08-07T11:33:54.066Z,39.60
2022-08-07T11:36:13.979Z,39.50
2022-08-07T11:38:26.812Z,39.70
2022-08-07T11:40:39.614Z,39.40
2022-08-07T11:42:51.179Z,40.00
2022-08-07T11:44:57.686Z,39.30
2022-08-07T11:47:23.145Z,39.40
2022-08-07T11:50:25.759Z,39.30
2022-08-07T11:52:09.772Z,38.70
2022-08-07T11:54:25.273Z,38.90
2022-08-07T11:56:28.314Z,38.90
2022-08-07T11:58:49.860Z,39.00
2022-08-07T12:01:05.120Z,38.80
2022-08-07T12:03:44.541Z,39.00
2022-08-07T12:05:58.249Z,38.40
2022-08-07T12:08:07.251Z,38.60
2022-08-07T12:10:34.911Z,38.90
2022-08-07T12:12:59.520Z,38.20
2022-08-07T12:15:46.481Z,37.50
2022-08-07T12:17:55.960Z,37.80
2022-08-07T12:20:29.761Z,37.70
2022-08-07T12:22:55.847Z,37.60
2022-08-07T12:26:02.822Z,37.60
2022-08-07T12:28:09.600Z,37.80
2022-08-07T12:30:15.443Z,37.70
2022-08-07T12:32:17.117Z,37.70
2022-08-07T12:34:20.498Z,37.40
2022-08-07T12:36:33.155Z,37.10
2022-08-07T12:38:43.016Z,37.10
2022-08-07T12:40:50.304Z,36.10
2022-08-07T12:42:57.077Z,36.80
2022-08-07T12:45:04.288Z,36.50
2022-08-07T12:47:07.451Z,37.00
2022-08-07T12:49:39.794Z,37.00
2022-08-07T12:52:14.521Z,36.80
2022-08-07T12:54:36.962Z,36.70
2022-08-07T12:56:50.889Z,36.40
2022-08-07T12:58:58.129Z,36.30
2022-08-07T13:01:20.371Z,35.80
2022-08-07T13:04:00.508Z,35.30
2022-08-07T13:06:05.005Z,35.40
2022-08-07T13:08:33.899Z,35.80
2022-08-07T13:10:52.223Z,35.70
2022-08-07T13:13:01.443Z,35.90
2022-08-07T13:15:14.156Z,35.80
2022-08-07T13:17:39.929Z,35.30
2022-08-07T13:19:50.490Z,36.00
2022-08-07T13:21:59.781Z,35.60
2022-08-07T13:24:15.433Z,35.20
2022-08-07T13:26:26.416Z,35.30
2022-08-07T13:28:37.683Z,35.60
2022-08-07T13:30:44.124Z,35.40
2022-08-07T13:32:59.454Z,35.30
2022-08-07T13:35:21.470Z,34.50
2022-08-07T13:37:23.818Z,34.90
2022-08-07T13:40:34.291Z,34.10
2022-08-07T13:41:54.579Z,34.10
2022-08-07T13:44:00.314Z,34.20
2022-08-07T13:46:12.858Z,34.20
2022-08-07T13:48:34.526Z,34.50
2022-08-07T13:50:44.408Z,34.50
2022-08-07T13:53:05.306Z,34.00
2022-08-07T13:55:19.227Z,33.50
2022-08-07T13:57:37.595Z,33.50
2022-08-07T13:59:42.760Z,33.60
2022-08-07T14:02:03.956Z,33.50
2022-08-07T14:04:16.923Z,32.60
2022-08-07T14:06:24.767Z,33.10
2022-08-07T14:08:27.809Z,33.20
2022-08-07T14:10:42.099Z,33.00
2022-08-07T14:12:58.472Z,33.00
2022-08-07T14:15:04.794Z,33.50
2022-08-07T14:17:13.119Z,33.40
2022-08-07T14:20:42.942Z,33.10
2022-08-07T14:22:41.240Z,33.20
2022-08-07T14:24:33.457Z,33.30
2022-08-07T14:26:37.530Z,33.70
2022-08-07T14:28:59.495Z,33.60
2022-08-07T14:31:05.448Z,33.30
2022-08-07T14:33:07.939Z,33.30
2022-08-07T14:35:45.827Z,33.20
2022-08-07T14:37:40.072Z,33.40
2022-08-07T14:40:15.655Z,32.00
2022-08-07T14:42:18.521Z,32.90
2022-08-07T14:44:24.829Z,33.10
2022-08-07T14:46:32.532Z,32.80
2022-08-07T14:48:36.889Z,33.10
2022-08-07T14:51:00.089Z,32.30
2022-08-07T14:53:07.933Z,32.60
2022-08-07T14:55:10.644Z,32.30
2022-08-07T14:57:20.441Z,32.20
2022-08-07T15:00:03.491Z,32.40
2022-08-07T15:01:51.076Z,32.10
2022-08-07T15:03:53.532Z,32.40
2022-08-07T15:10:58.828Z,32.00
2022-08-07T15:13:06.270Z,32.00
2022-08-07T15:15:21.392Z,32.00
2022-08-07T15:17:32.505Z,31.90
2022-08-07T15:20:32.406Z,32.60
2022-08-07T15:22:31.145Z,31.10
2022-08-07T15:25:16.041Z,30.90
2022-08-07T15:27:10.437Z,30.80
2022-08-07T15:33:59.790Z,30.80
2022-08-07T15:36:05.217Z,31.40
2022-08-07T15:38:17.630Z,30.60
2022-08-07T15:40:34.665Z,31.00
2022-08-07T15:42:47.823Z,30.80
2022-08-07T15:44:51.942Z,31.10
2022-08-07T15:47:08.984Z,30.70
2022-08-07T15:49:18.962Z,30.00
2022-08-07T15:53:53.645Z,31.10
2022-08-07T15:56:02.111Z,30.30
2022-08-07T15:58:05.267Z,30.50
2022-08-07T16:00:32.174Z,30.80
2022-08-07T16:02:45.763Z,30.20
2022-08-07T16:04:49.306Z,30.30
2022-08-07T16:06:55.765Z,30.40
2022-08-07T16:09:03.208Z,30.10
2022-08-07T16:11:40.123Z,30.10
2022-08-07T16:14:00.200Z,30.10
2022-08-07T16:16:43.332Z,30.30
2022-08-07T16:18:50.786Z,30.40
2022-08-07T16:21:44.049Z,30.00
2022-08-07T16:23:53.043Z,30.00
2022-08-07T16:25:53.997Z,30.00
2022-08-07T16:28:00.454Z,29.90
2022-08-07T16:30:31.014Z,29.80
2022-08-07T16:32:54.651Z,29.40
2022-08-07T16:34:58.423Z,29.90
2022-08-07T16:38:03.654Z,29.70
2022-08-07T16:40:01.922Z,29.20
2022-08-07T16:42:14.941Z,29.60
2022-08-07T16:44:53.650Z,29.40
2022-08-07T16:47:14.366Z,29.60
2022-08-07T16:50:20.231Z,29.40
2022-08-07T16:52:51.468Z,29.40
2022-08-07T16:54:54.257Z,29.10
2022-08-07T16:56:57.151Z,29.00
2022-08-07T16:59:10.535Z,29.30
2022-08-07T17:01:18.664Z,29.20
2022-08-07T17:03:58.580Z,29.10
2022-08-07T17:06:29.289Z,29.10
2022-08-07T17:09:09.745Z,29.20
2022-08-07T17:10:57.397Z,29.40
2022-08-07T17:13:01.083Z,29.10
2022-08-07T17:15:17.964Z,29.20
2022-08-07T17:17:46.564Z,29.40
2022-08-07T17:20:02.654Z,29.20
2022-08-07T17:22:36.276Z,29.10
2022-08-07T17:24:42.247Z,29.20
2022-08-07T17:26:51.391Z,29.40
2022-08-07T17:29:09.441Z,29.40
2022-08-07T17:31:44.013Z,29.40
2022-08-07T17:34:15.072Z,29.30
2022-08-07T17:36:13.668Z,29.50
2022-08-07T17:38:33.915Z,29.80
2022-08-07T17:40:55.196Z,29.80
2022-08-07T17:43:17.870Z,29.60
2022-08-07T17:45:23.432Z,29.80
2022-08-07T17:47:42.126Z,29.90
2022-08-07T17:49:56.110Z,30.00
2022-08-07T17:52:10.376Z,30.20
2022-08-07T17:54:29.868Z,30.30
2022-08-07T17:57:19.071Z,30.40
2022-08-07T17:59:41.314Z,30.60
2022-08-07T18:01:48.531Z,30.70
2022-08-07T18:03:54.013Z,30.90
2022-08-07T18:06:16.380Z,31.00
2022-08-07T18:08:33.002Z,31.20
2022-08-07T18:12:08.117Z,31.40
2022-08-07T18:13:23.270Z,31.40
2022-08-07T18:15:32.612Z,31.40
2022-08-07T18:18:39.858Z,31.20
2022-08-07T18:21:02.913Z,31.20
2022-08-07T18:22:40.165Z,31.30
2022-08-07T18:24:44.893Z,31.20
2022-08-07T18:27:21.013Z,31.40
2022-08-07T18:30:07.715Z,31.60
2022-08-07T18:32:19.443Z,31.80
2022-08-07T18:34:40.895Z,32.00
2022-08-07T18:38:59.711Z,32.10
2022-08-07T18:40:06.483Z,32.20
2022-08-07T18:42:18.590Z,32.50
2022-08-07T18:44:25.723Z,32.40
2022-08-07T18:46:27.855Z,32.50
2022-08-07T18:50:19.460Z,32.50
2022-08-07T18:52:33.429Z,32.70
2022-08-07T18:53:55.381Z,32.90
2022-08-07T18:56:31.622Z,33.00
2022-08-07T18:58:34.019Z,33.10
2022-08-07T19:00:43.701Z,33.30
2022-08-07T19:03:12.077Z,33.50
2022-08-07T19:05:22.887Z,33.80
2022-08-07T19:07:34.789Z,33.70
2022-08-07T19:09:59.219Z,33.70
2022-08-07T19:12:26.444Z,33.90
2022-08-07T19:14:37.672Z,34.00
2022-08-07T19:17:04.664Z,34.20
2022-08-07T19:19:08.292Z,34.30
2022-08-07T19:21:43.850Z,34.30
2022-08-07T19:23:58.488Z,34.20
2022-08-07T19:26:22.846Z,34.50
2022-08-07T19:28:29.839Z,34.50
2022-08-07T19:31:05.487Z,34.60
2022-08-07T19:33:01.633Z,34.50
2022-08-07T19:35:22.629Z,34.60
2022-08-07T19:37:25.232Z,34.60
2022-08-07T19:39:57.615Z,34.70
2022-08-07T19:42:24.626Z,34.80
2022-08-07T19:44:33.594Z,34.90
2022-08-07T19:46:39.005Z,34.80
2022-08-07T19:48:59.990Z,34.80
2022-08-07T19:51:03.187Z,34.90
2022-08-07T19:54:29.806Z,35.00
2022-08-07T19:55:57.186Z,34.80
2022-08-07T19:58:13.978Z,34.80
2022-08-07T20:00:28.975Z,35.10
2022-08-07T20:02:40.063Z,35.00
2022-08-07T20:04:56.054Z,35.00
2022-08-07T20:06:58.133Z,35.10
2022-08-07T20:09:01.807Z,35.40
2022-08-07T20:11:09.950Z,35.40
2022-08-07T20:13:26.769Z,35.40
2022-08-07T20:15:33.082Z,35.40
2022-08-07T20:17:39.665Z,35.50
2022-08-07T20:19:48.330Z,35.50
2022-08-07T20:22:01.436Z,35.70
2022-08-07T20:24:04.222Z,35.50
2022-08-07T20:26:09.968Z,35.70
2022-08-07T20:28:14.915Z,35.70
2022-08-07T20:30:21.803Z,35.60
2022-08-07T20:32:26.621Z,35.50
2022-08-07T20:34:51.365Z,35.50
2022-08-07T20:36:56.755Z,35.70
2022-08-07T20:39:00.394Z,35.80
2022-08-07T20:41:03.777Z,35.70
2022-08-07T20:43:16.946Z,35.70
2022-08-07T20:46:24.164Z,35.80
2022-08-07T20:47:56.279Z,36.00
2022-08-07T20:50:02.014Z,36.00
2022-08-07T20:52:14.081Z,36.00
2022-08-07T20:54:29.700Z,36.00
2022-08-07T20:56:41.109Z,36.10
2022-08-07T20:58:53.165Z,36.10
2022-08-07T21:00:58.457Z,36.20
2022-08-07T21:03:01.666Z,36.10
2022-08-07T21:05:10.421Z,36.20
2022-08-07T21:07:23.483Z,36.30
2022-08-07T21:09:30.180Z,36.20
2022-08-07T21:11:55.648Z,36.30
2022-08-07T21:14:32.969Z,36.40
2022-08-07T21:16:20.695Z,36.40
2022-08-07T21:18:29.479Z,36.30
2022-08-07T21:20:33.544Z,36.50
2022-08-07T21:22:44.930Z,36.60
2022-08-07T21:25:12.337Z,36.60
2022-08-07T21:27:22.856Z,36.60
2022-08-07T21:29:30.848Z,36.50
2022-08-07T21:32:42.391Z,36.80
2022-08-07T21:34:14.145Z,36.80
2022-08-07T21:36:32.198Z,36.90
2022-08-07T21:38:44.181Z,36.80
2022-08-07T21:40:55.415Z,36.80
2022-08-07T21:43:06.461Z,36.80
2022-08-07T21:46:09.281Z,36.80
2022-08-07T21:47:39.592Z,36.60
2022-08-07T21:50:03.420Z,36.50
2022-08-07T21:52:09.042Z,36.70
2022-08-07T21:54:13.354Z,36.80
2022-08-07T21:56:16.808Z,36.60
2022-08-07T21:58:45.889Z,36.50
2022-08-07T22:00:50.721Z,36.80
2022-08-07T22:02:55.643Z,36.80
2022-08-07T22:04:58.897Z,36.70
2022-08-07T22:07:03.433Z,36.80
2022-08-07T22:09:10.413Z,36.80
2022-08-07T22:11:17.605Z,36.80
2022-08-07T22:13:24.453Z,36.70
2022-08-07T22:16:43.510Z,36.70
2022-08-07T22:18:04.663Z,37.00
2022-08-07T22:20:23.879Z,37.00
2022-08-07T22:22:33.811Z,37.20
2022-08-07T22:24:46.646Z,37.10
2022-08-07T22:27:01.956Z,37.10
2022-08-07T22:29:15.006Z,37.10
2022-08-07T22:31:56.016Z,37.00
2022-08-07T22:33:56.761Z,37.10
2022-08-07T22:36:02.049Z,37.10
2022-08-07T22:38:10.291Z,37.30
2022-08-07T22:40:20.893Z,37.10
2022-08-07T22:42:29.617Z,37.10
2022-08-07T22:44:34.456Z,37.00
2022-08-07T22:47:03.772Z,37.10
2022-08-07T22:49:27.396Z,37.10
2022-08-07T22:51:49.322Z,37.10
2022-08-07T22:54:05.222Z,37.10
2022-08-07T22:56:16.277Z,37.20
2022-08-07T22:58:18.005Z,37.10
2022-08-07T23:00:28.553Z,37.20
2022-08-07T23:02:45.990Z,37.00
2022-08-07T23:06:07.243Z,37.10
2022-08-07T23:07:42.181Z,37.10
2022-08-07T23:10:34.899Z,37.10
2022-08-07T23:12:36.851Z,37.10
2022-08-07T23:14:47.608Z,37.10
2022-08-07T23:17:12.767Z,37.30
2022-08-07T23:19:47.670Z,37.20
2022-08-07T23:21:56.299Z,37.30
2022-08-07T23:24:17.285Z,37.40
2022-08-07T23:26:23.434Z,37.30
2022-08-07T23:28:28.886Z,37.30
2022-08-07T23:30:45.864Z,37.40
2022-08-07T23:34:22.513Z,37.20
2022-08-07T23:35:58.770Z,37.30
2022-08-07T23:38:19.150Z,37.10
2022-08-07T23:40:49.330Z,37.20
2022-08-07T23:43:16.850Z,37.00
2022-08-07T23:45:32.805Z,37.10
2022-08-07T23:47:46.800Z,37.10
2022-08-07T23:49:51.319Z,37.20
2022-08-07T23:53:06.776Z,37.10
2022-08-07T23:54:36.341Z,36.90
2022-08-07T23:56:53.871Z,36.90
2022-08-07T23:59:10.160Z,36.90
